Terminal Aerodrome Forecast
Issued by NWS Lake Charles, LA

Home | Current Version | Previous Version | Text Only | Print | Product List | Glossary On
Versions: 1 2 3 4 5 6 7 8 9 10 11 12 13 14 15 16 17 18 19 20 21 22 23
324
FTUS44 KLCH 191410 AAA
TAFAEX
TAF AMD
KAEX 191410Z 1914/2012 09005KT 6SM BR OVC014
     FM191600 14010KT P6SM BKN030
     FM192100 14010KT P6SM SKC
     FM200300 13007KT 5SM BR SCT250=

USA.gov is the U.S. government's official web portal to all federal, state and local government web resources and services.